createdAt,value
2023-04-30T00:01:09.915Z,8.29
2023-04-30T00:02:49.673Z,8.28
2023-04-30T00:04:29.432Z,8.26
2023-04-30T00:06:09.219Z,8.22
2023-04-30T00:07:48.975Z,8.2
2023-04-30T00:09:28.751Z,8.18
2023-04-30T00:11:08.513Z,8.14
2023-04-30T00:12:48.276Z,8.12
2023-04-30T00:14:28.126Z,8.1
2023-04-30T00:16:07.796Z,8.07
2023-04-30T00:17:47.606Z,8.06
2023-04-30T00:19:27.319Z,8.01
2023-04-30T00:21:07.102Z,7.97
2023-04-30T00:22:46.856Z,7.91
2023-04-30T00:24:26.675Z,7.86
2023-04-30T00:26:06.377Z,7.82
2023-04-30T00:27:46.129Z,7.79
2023-04-30T00:29:25.933Z,7.78
2023-04-30T00:31:05.660Z,7.73
2023-04-30T00:32:45.459Z,7.7
2023-04-30T00:34:25.212Z,7.66
2023-04-30T00:36:04.953Z,7.61
2023-04-30T00:39:24.527Z,7.53
2023-04-30T00:42:44.024Z,7.49
2023-04-30T00:44:23.781Z,7.44
2023-04-30T00:46:03.536Z,7.41
2023-04-30T00:47:43.311Z,7.37
2023-04-30T00:49:23.064Z,7.33
2023-04-30T00:51:02.833Z,7.32
2023-04-30T00:52:42.585Z,7.29
2023-04-30T00:54:22.371Z,7.3
2023-04-30T00:56:02.165Z,7.28
2023-04-30T00:57:41.888Z,7.27
2023-04-30T00:59:21.656Z,7.25
2023-04-30T01:01:01.512Z,7.26
2023-04-30T01:02:41.198Z,7.22
2023-04-30T01:04:20.943Z,7.19
2023-04-30T01:06:00.733Z,7.13
2023-04-30T01:09:20.232Z,7.08
2023-04-30T01:11:00.003Z,7.06
2023-04-30T01:12:39.763Z,7.04
2023-04-30T01:14:19.527Z,7.02
2023-04-30T01:15:59.307Z,6.99
2023-04-30T01:17:39.063Z,6.97
2023-04-30T01:19:18.823Z,6.93
2023-04-30T01:20:58.580Z,6.91
2023-04-30T01:22:38.382Z,6.89
2023-04-30T01:24:18.173Z,6.86
2023-04-30T01:25:57.859Z,6.84
2023-04-30T01:27:37.638Z,6.83
2023-04-30T01:29:17.385Z,6.79
2023-04-30T01:32:36.917Z,6.75
2023-04-30T01:34:16.710Z,6.73
2023-04-30T01:35:56.448Z,6.73
2023-04-30T01:37:36.227Z,6.7
2023-04-30T01:39:15.986Z,6.67
2023-04-30T01:40:55.750Z,6.68
2023-04-30T01:42:35.502Z,6.66
2023-04-30T01:44:15.316Z,6.65
2023-04-30T01:45:55.035Z,6.64
2023-04-30T01:47:34.799Z,6.6
2023-04-30T01:49:14.568Z,6.61
2023-04-30T01:50:54.376Z,6.59
2023-04-30T01:52:34.089Z,6.59
2023-04-30T01:54:13.910Z,6.57
2023-04-30T01:55:53.646Z,6.56
2023-04-30T01:57:33.374Z,6.55
2023-04-30T01:59:13.214Z,6.55
2023-04-30T02:00:52.928Z,6.56
2023-04-30T02:02:32.680Z,6.55
2023-04-30T02:04:12.462Z,6.55
2023-04-30T02:05:52.203Z,6.54
2023-04-30T02:07:31.970Z,6.51
2023-04-30T02:09:11.744Z,6.51
2023-04-30T02:10:51.492Z,6.5
2023-04-30T02:12:31.248Z,6.47
2023-04-30T02:14:11.022Z,6.45
2023-04-30T02:15:50.788Z,6.43
2023-04-30T02:17:30.561Z,6.43
2023-04-30T02:19:10.344Z,6.4
2023-04-30T02:20:50.107Z,6.38
2023-04-30T02:22:29.859Z,6.37
2023-04-30T02:24:09.614Z,6.35
2023-04-30T02:25:49.386Z,6.34
2023-04-30T02:29:08.901Z,6.32
2023-04-30T02:30:48.661Z,6.32
2023-04-30T02:32:28.437Z,6.31
2023-04-30T02:34:08.201Z,6.27
2023-04-30T02:35:47.948Z,6.26
2023-04-30T02:39:07.503Z,6.23
2023-04-30T02:40:47.363Z,6.19
2023-04-30T02:42:27.027Z,6.21
2023-04-30T02:44:06.851Z,6.19
2023-04-30T02:45:46.538Z,6.15
2023-04-30T02:49:06.060Z,6.11
2023-04-30T02:50:45.873Z,6.1
2023-04-30T02:52:25.661Z,6.09
2023-04-30T02:54:05.372Z,6.08
2023-04-30T02:55:45.099Z,6.06
2023-04-30T02:57:24.869Z,6.07
2023-04-30T02:59:04.635Z,6.05
2023-04-30T03:00:44.434Z,6.01
2023-04-30T03:02:24.177Z,6.02
2023-04-30T03:04:03.924Z,5.99
2023-04-30T03:05:43.782Z,6
2023-04-30T03:07:23.460Z,5.96
2023-04-30T03:09:03.221Z,5.97
2023-04-30T03:10:43.092Z,5.93
2023-04-30T03:14:02.512Z,5.85
2023-04-30T03:15:42.284Z,5.89
2023-04-30T03:17:22.086Z,5.87
2023-04-30T03:19:01.813Z,5.85
2023-04-30T03:20:41.692Z,5.82
2023-04-30T03:22:21.335Z,5.8
2023-04-30T03:24:01.212Z,5.76
2023-04-30T03:25:40.929Z,5.76
2023-04-30T03:27:20.680Z,5.72
2023-04-30T03:29:00.410Z,5.72
2023-04-30T03:30:40.172Z,5.7
2023-04-30T03:32:19.952Z,5.7
2023-04-30T03:33:59.691Z,5.64
2023-04-30T03:35:39.484Z,5.64
2023-04-30T03:37:19.245Z,5.59
2023-04-30T03:38:58.983Z,5.56
2023-04-30T03:40:38.748Z,5.53
2023-04-30T03:42:18.590Z,5.52
2023-04-30T03:43:58.265Z,5.51
2023-04-30T03:45:38.028Z,5.49
2023-04-30T03:47:17.867Z,5.47
2023-04-30T03:48:57.586Z,5.46
2023-04-30T03:50:37.406Z,5.46
2023-04-30T03:52:17.143Z,5.44
2023-04-30T03:53:56.975Z,5.42
2023-04-30T03:55:36.627Z,5.41
2023-04-30T03:58:56.131Z,5.4
2023-04-30T04:00:36.067Z,5.37
2023-04-30T04:02:15.701Z,5.39
2023-04-30T04:03:55.425Z,5.4
2023-04-30T04:05:35.219Z,5.36
2023-04-30T04:08:54.749Z,5.37
2023-04-30T04:12:14.338Z,5.35
2023-04-30T04:13:54.012Z,5.38
2023-04-30T04:15:33.801Z,5.35
2023-04-30T04:17:13.595Z,5.25
2023-04-30T04:18:53.361Z,5.33
2023-04-30T04:20:33.130Z,5.32
2023-04-30T04:22:12.873Z,5.34
2023-04-30T04:23:52.623Z,5.34
2023-04-30T04:25:32.400Z,5.34
2023-04-30T04:27:12.190Z,5.34
2023-04-30T04:28:51.958Z,5.34
2023-04-30T04:30:31.684Z,5.3
2023-04-30T04:32:11.493Z,5.29
2023-04-30T04:33:51.173Z,5.29
2023-04-30T04:35:30.976Z,5.3
2023-04-30T04:37:10.744Z,5.26
2023-04-30T04:38:50.508Z,5.29
2023-04-30T04:40:30.292Z,5.29
2023-04-30T04:42:10.081Z,5.22
2023-04-30T04:43:49.761Z,5.23
2023-04-30T04:45:29.569Z,5.23
2023-04-30T04:48:49.066Z,5.22
2023-04-30T04:52:08.596Z,5.22
2023-04-30T04:55:28.109Z,5.23
2023-04-30T04:57:07.870Z,5.13
2023-04-30T04:58:47.719Z,5.24
2023-04-30T05:00:27.385Z,5.2
2023-04-30T05:02:07.208Z,5.19
2023-04-30T05:03:46.985Z,5.12
2023-04-30T05:05:26.750Z,5.21
2023-04-30T05:08:46.422Z,5.21
2023-04-30T05:10:26.000Z,5.14
2023-04-30T05:12:05.918Z,5.21
2023-04-30T05:13:45.522Z,5.22
2023-04-30T05:15:25.296Z,5.2
2023-04-30T05:17:05.206Z,5.2
2023-04-30T05:18:44.811Z,5.2
2023-04-30T05:20:24.690Z,5.16
2023-04-30T05:22:04.361Z,5.2
2023-04-30T05:23:44.082Z,5.21
2023-04-30T05:25:23.871Z,5.2
2023-04-30T05:27:03.694Z,5.22
2023-04-30T05:28:43.440Z,5.22
2023-04-30T05:30:23.218Z,5.23
2023-04-30T05:32:02.934Z,5.22
2023-04-30T05:33:42.682Z,5.23
2023-04-30T05:35:22.461Z,5.25
2023-04-30T05:37:02.285Z,5.26
2023-04-30T05:38:41.988Z,5.27
2023-04-30T05:40:21.807Z,5.17
2023-04-30T05:42:01.495Z,5.26
2023-04-30T05:43:41.351Z,5.27
2023-04-30T05:45:21.090Z,5.27
2023-04-30T05:47:00.869Z,5.27
2023-04-30T05:48:40.606Z,5.29
2023-04-30T05:52:00.151Z,5.31
2023-04-30T05:53:39.870Z,5.28
2023-04-30T05:55:19.808Z,5.32
2023-04-30T05:56:59.460Z,5.34
2023-04-30T05:58:39.212Z,5.29
2023-04-30T06:00:18.906Z,5.33
2023-04-30T06:01:58.807Z,5.35
2023-04-30T06:03:38.475Z,5.36
2023-04-30T06:05:18.205Z,5.34
2023-04-30T06:06:58.002Z,5.35
2023-04-30T06:08:37.713Z,5.36
2023-04-30T06:11:57.244Z,5.35
2023-04-30T06:13:37.009Z,5.33
2023-04-30T06:15:16.774Z,5.36
2023-04-30T06:20:16.078Z,5.4
2023-04-30T06:21:55.846Z,5.4
2023-04-30T06:23:35.593Z,5.41
2023-04-30T06:25:15.356Z,5.43
2023-04-30T06:26:55.129Z,5.4
2023-04-30T06:28:34.880Z,5.44
2023-04-30T06:30:14.682Z,5.46
2023-04-30T06:31:54.405Z,5.48
2023-04-30T06:38:33.482Z,5.57
2023-04-30T06:40:13.396Z,5.61
2023-04-30T06:41:53.013Z,5.63
2023-04-30T06:43:32.748Z,5.66
2023-04-30T06:45:12.527Z,5.67
2023-04-30T06:46:52.290Z,5.71
2023-04-30T06:48:32.074Z,5.72
2023-04-30T06:50:11.858Z,5.76
2023-04-30T06:51:51.578Z,5.81
2023-04-30T06:53:31.426Z,5.81
2023-04-30T06:55:11.230Z,5.86
2023-04-30T06:56:50.865Z,5.92
2023-04-30T06:58:30.689Z,5.96
2023-04-30T07:00:10.421Z,5.99
2023-04-30T07:01:50.174Z,6.02
2023-04-30T07:03:29.976Z,6.05
2023-04-30T07:05:09.694Z,6.12
2023-04-30T07:06:49.451Z,6.15
2023-04-30T07:08:29.232Z,6.21
2023-04-30T07:10:09.151Z,6.26
2023-04-30T07:11:48.748Z,6.35
2023-04-30T07:13:28.516Z,6.39
2023-04-30T07:15:08.274Z,6.47
2023-04-30T07:16:48.033Z,6.55
2023-04-30T07:18:27.799Z,6.62
2023-04-30T07:20:07.765Z,6.68
2023-04-30T07:21:47.357Z,6.73
2023-04-30T07:23:27.141Z,6.83
2023-04-30T07:25:06.852Z,6.88
2023-04-30T07:26:46.626Z,6.96
2023-04-30T07:28:26.454Z,7.02
2023-04-30T07:30:06.333Z,7.12
2023-04-30T07:31:46.028Z,7.18
2023-04-30T07:33:25.723Z,7.23
2023-04-30T07:35:05.459Z,7.31
2023-04-30T07:36:45.290Z,7.38
2023-04-30T07:38:25.064Z,7.48
2023-04-30T07:40:04.833Z,7.54
2023-04-30T07:41:44.638Z,7.63
2023-04-30T07:43:24.402Z,7.72
2023-04-30T07:45:04.014Z,7.79
2023-04-30T07:46:43.805Z,7.87
2023-04-30T07:48:23.600Z,7.95
2023-04-30T07:50:03.322Z,8.02
2023-04-30T07:51:43.250Z,8.09
2023-04-30T07:53:23.000Z,8.16
2023-04-30T07:55:02.753Z,8.22
2023-04-30T07:56:42.443Z,8.32
2023-04-30T07:58:22.289Z,8.34
2023-04-30T08:00:02.107Z,8.35
2023-04-30T08:01:41.817Z,8.42
2023-04-30T08:03:21.597Z,8.51
2023-04-30T08:05:01.349Z,8.57
2023-04-30T08:06:41.127Z,8.6
2023-04-30T08:08:20.895Z,8.64
2023-04-30T08:10:00.676Z,8.68
2023-04-30T08:11:40.454Z,8.76
2023-04-30T08:13:20.177Z,8.82
2023-04-30T08:14:59.900Z,8.88
2023-04-30T08:16:39.540Z,8.91
2023-04-30T08:18:19.305Z,8.99
2023-04-30T08:19:59.201Z,9.02
2023-04-30T08:21:38.879Z,9.06
2023-04-30T08:23:18.667Z,9.12
2023-04-30T08:24:58.360Z,9.18
2023-04-30T08:26:38.133Z,9.21
2023-04-30T08:28:17.902Z,9.28
2023-04-30T08:29:57.664Z,9.31
2023-04-30T08:31:37.418Z,9.35
2023-04-30T08:33:17.277Z,9.41
2023-04-30T08:34:57.141Z,9.47
2023-04-30T08:38:16.472Z,9.58
2023-04-30T08:39:56.372Z,9.66
2023-04-30T08:41:36.114Z,9.68
2023-04-30T08:43:15.775Z,9.72
2023-04-30T08:44:55.527Z,9.75
2023-04-30T08:46:35.287Z,9.79
2023-04-30T08:48:15.071Z,9.82
2023-04-30T08:49:54.967Z,9.79
2023-04-30T08:51:34.602Z,9.84
2023-04-30T08:53:14.428Z,9.89
2023-04-30T08:54:54.125Z,9.93
2023-04-30T08:56:33.871Z,9.97
2023-04-30T08:58:13.702Z,10
2023-04-30T08:59:53.633Z,10.04
2023-04-30T09:01:33.177Z,10.1
2023-04-30T09:03:12.945Z,10.12
2023-04-30T09:04:52.810Z,10.18
2023-04-30T09:06:32.457Z,10.18
2023-04-30T09:08:12.331Z,10.29
2023-04-30T09:09:51.984Z,10.36
2023-04-30T09:11:31.800Z,10.43
2023-04-30T09:13:11.563Z,10.49
2023-04-30T09:14:51.258Z,10.51
2023-04-30T09:16:31.032Z,10.49
2023-04-30T09:18:10.934Z,10.52
2023-04-30T09:19:50.721Z,10.51
2023-04-30T09:21:30.326Z,10.54
2023-04-30T09:23:10.099Z,10.57
2023-04-30T09:24:49.944Z,10.62
2023-04-30T09:26:29.613Z,10.67
2023-04-30T09:28:09.409Z,10.72
2023-04-30T09:29:49.306Z,10.78
2023-04-30T09:31:29.180Z,10.82
2023-04-30T09:33:08.689Z,10.86
2023-04-30T09:34:48.447Z,10.89
2023-04-30T09:36:28.202Z,10.94
2023-04-30T09:38:07.985Z,10.98
2023-04-30T09:39:47.852Z,11.01
2023-04-30T09:41:27.541Z,11.01
2023-04-30T09:43:07.274Z,11.04
2023-04-30T09:44:47.024Z,11.06
2023-04-30T09:46:26.815Z,11.08
2023-04-30T09:48:06.556Z,11.13
2023-04-30T09:49:46.399Z,11.18
2023-04-30T09:51:26.200Z,11.26
2023-04-30T09:54:45.619Z,11.4
2023-04-30T09:56:25.443Z,11.44
2023-04-30T09:58:05.140Z,11.46
2023-04-30T09:59:44.892Z,11.5
2023-04-30T10:01:24.820Z,11.52
2023-04-30T10:03:04.439Z,11.55
2023-04-30T10:04:44.299Z,11.53
2023-04-30T10:06:23.960Z,11.57
2023-04-30T10:08:03.734Z,11.61
2023-04-30T10:09:43.497Z,11.66
2023-04-30T10:11:23.350Z,11.67
2023-04-30T10:13:03.078Z,11.7
2023-04-30T10:14:42.769Z,11.75
2023-04-30T10:16:22.564Z,11.75
2023-04-30T10:18:02.299Z,11.78
2023-04-30T10:19:42.166Z,11.84
2023-04-30T10:21:21.836Z,11.91
2023-04-30T10:23:01.592Z,11.98
2023-04-30T10:24:41.352Z,12.01
2023-04-30T10:26:21.150Z,12.08
2023-04-30T10:28:00.899Z,12.12
2023-04-30T10:29:40.756Z,12.18
2023-04-30T10:31:20.402Z,12.2
2023-04-30T10:33:00.193Z,12.25
2023-04-30T10:34:39.947Z,12.3
2023-04-30T10:36:19.822Z,12.37
2023-04-30T10:37:59.462Z,12.39
2023-04-30T10:39:39.337Z,12.47
2023-04-30T10:41:18.994Z,12.47
2023-04-30T10:42:58.762Z,12.53
2023-04-30T10:44:38.524Z,12.54
2023-04-30T10:46:18.436Z,12.55
2023-04-30T10:47:58.061Z,12.54
2023-04-30T10:49:37.812Z,12.55
2023-04-30T10:51:17.580Z,12.6
2023-04-30T10:52:57.326Z,12.65
2023-04-30T10:54:37.157Z,12.67
2023-04-30T10:56:16.865Z,12.71
2023-04-30T10:57:56.639Z,12.73
2023-04-30T10:59:36.393Z,12.77
2023-04-30T11:01:16.384Z,12.81
2023-04-30T11:02:55.929Z,12.84
2023-04-30T11:04:35.786Z,12.92
2023-04-30T11:06:15.450Z,12.86
2023-04-30T11:07:55.278Z,12.94
2023-04-30T11:09:34.975Z,13
2023-04-30T11:11:14.823Z,13.07
2023-04-30T11:12:54.543Z,13.15
2023-04-30T11:14:34.346Z,13.26
2023-04-30T11:16:14.035Z,13.29
2023-04-30T11:17:53.829Z,13.34
2023-04-30T11:21:13.447Z,13.3
2023-04-30T11:22:53.119Z,13.38
2023-04-30T11:24:32.917Z,13.42
2023-04-30T11:26:12.709Z,13.46
2023-04-30T11:27:52.429Z,13.48
2023-04-30T11:29:32.155Z,13.51
2023-04-30T11:31:11.913Z,13.53
2023-04-30T11:32:51.683Z,13.5
2023-04-30T11:34:31.447Z,13.5
2023-04-30T11:36:11.203Z,13.54
2023-04-30T11:37:51.117Z,13.55
2023-04-30T11:39:30.747Z,13.55
2023-04-30T11:41:10.497Z,13.52
2023-04-30T11:42:50.360Z,13.58
2023-04-30T11:44:30.024Z,13.57
2023-04-30T11:46:09.820Z,13.57
2023-04-30T11:47:49.620Z,13.65
2023-04-30T11:49:29.331Z,13.71
2023-04-30T11:51:09.154Z,13.78
2023-04-30T11:52:48.840Z,13.84
2023-04-30T11:54:28.620Z,13.84
2023-04-30T11:56:08.379Z,13.84
2023-04-30T11:57:48.128Z,13.83
2023-04-30T11:59:27.912Z,13.85
2023-04-30T12:01:07.700Z,13.87
2023-04-30T12:02:47.424Z,13.89
2023-04-30T12:04:27.202Z,13.94
2023-04-30T12:06:06.959Z,14
2023-04-30T12:07:46.718Z,14.05
2023-04-30T12:09:26.506Z,14.14
2023-04-30T12:11:06.337Z,14.19
2023-04-30T12:12:46.040Z,14.27
2023-04-30T12:14:25.776Z,14.31
2023-04-30T12:16:05.625Z,14.33
2023-04-30T12:17:45.307Z,14.42
2023-04-30T12:19:25.093Z,14.54
2023-04-30T12:21:04.925Z,14.61
2023-04-30T12:22:44.585Z,14.65
2023-04-30T12:26:04.231Z,14.76
2023-04-30T12:27:43.893Z,14.86
2023-04-30T12:29:23.749Z,14.94
2023-04-30T12:31:03.463Z,15
2023-04-30T12:32:43.190Z,15.05
2023-04-30T12:34:22.963Z,15.08
2023-04-30T12:36:02.754Z,15.17
2023-04-30T12:37:42.545Z,15.25
2023-04-30T12:39:22.316Z,15.36
2023-04-30T12:41:02.076Z,15.44
2023-04-30T12:42:41.797Z,15.52
2023-04-30T12:44:21.564Z,15.56
2023-04-30T12:46:01.309Z,15.64
2023-04-30T12:47:41.064Z,15.67
2023-04-30T12:49:20.837Z,15.73
2023-04-30T12:51:00.648Z,15.75
2023-04-30T12:52:40.394Z,15.79
2023-04-30T12:54:20.117Z,15.85
2023-04-30T12:55:59.885Z,15.91
2023-04-30T12:57:39.716Z,15.96
2023-04-30T12:59:19.411Z,16.04
2023-04-30T13:00:59.184Z,16.19
2023-04-30T13:02:38.975Z,16.23
2023-04-30T13:04:18.700Z,16.37
2023-04-30T13:05:58.510Z,16.48
2023-04-30T13:07:38.233Z,16.61
2023-04-30T13:09:18.002Z,16.7
2023-04-30T13:10:57.764Z,16.76
2023-04-30T13:12:37.577Z,16.79
2023-04-30T13:14:17.377Z,16.82
2023-04-30T13:15:57.063Z,16.81
2023-04-30T13:17:36.839Z,16.85
2023-04-30T13:19:16.713Z,16.9
2023-04-30T13:20:56.439Z,16.95
2023-04-30T13:22:36.113Z,17.03
2023-04-30T13:24:15.865Z,17.12
2023-04-30T13:25:55.624Z,17.2
2023-04-30T13:27:35.626Z,17.28
2023-04-30T13:29:15.180Z,17.34
2023-04-30T13:30:54.926Z,17.34
2023-04-30T13:32:34.743Z,17.37
2023-04-30T13:34:14.468Z,17.45
2023-04-30T13:35:54.324Z,17.54
2023-04-30T13:37:33.983Z,17.59
2023-04-30T13:39:13.754Z,17.62
2023-04-30T13:40:53.605Z,17.65
2023-04-30T13:42:33.280Z,17.68
2023-04-30T13:44:13.080Z,17.7
2023-04-30T13:45:52.808Z,17.76
2023-04-30T13:47:32.573Z,17.83
2023-04-30T13:50:52.136Z,17.98
2023-04-30T13:52:31.908Z,17.98
2023-04-30T13:54:11.724Z,18.11
2023-04-30T13:55:51.394Z,18.14
2023-04-30T13:57:31.151Z,18.17
2023-04-30T13:59:10.908Z,18.2
2023-04-30T14:00:50.761Z,18.25
2023-04-30T14:02:30.453Z,18.31
2023-04-30T14:04:10.185Z,18.35
2023-04-30T14:07:29.801Z,18.45
2023-04-30T14:09:09.504Z,18.57
2023-04-30T14:10:49.262Z,18.68
2023-04-30T14:12:29.034Z,18.76
2023-04-30T14:14:08.854Z,18.87
2023-04-30T14:15:48.673Z,18.89
2023-04-30T14:17:28.323Z,18.95
2023-04-30T14:19:08.122Z,18.98
2023-04-30T14:20:47.885Z,19.04
2023-04-30T14:22:27.617Z,19.11
2023-04-30T14:24:07.383Z,19.17
2023-04-30T14:27:26.911Z,19.26
2023-04-30T14:29:06.669Z,19.29
2023-04-30T14:30:46.439Z,19.33
2023-04-30T14:32:26.188Z,19.35
2023-04-30T14:34:05.986Z,19.29
2023-04-30T14:35:45.733Z,19.21
2023-04-30T14:37:25.482Z,19.26
2023-04-30T14:39:05.297Z,19.26
2023-04-30T14:40:45.020Z,19.25
2023-04-30T14:42:24.771Z,19.26
2023-04-30T14:44:04.537Z,19.23
2023-04-30T14:47:24.086Z,19.16
2023-04-30T14:50:43.608Z,19.1
2023-04-30T14:52:23.395Z,18.99
2023-04-30T14:54:03.127Z,18.93
2023-04-30T14:55:42.972Z,18.84
2023-04-30T14:57:22.686Z,18.74
2023-04-30T15:00:42.316Z,18.62
2023-04-30T15:02:21.937Z,18.59
2023-04-30T15:04:01.755Z,18.58
2023-04-30T15:05:41.472Z,18.61
2023-04-30T15:07:21.308Z,18.62
2023-04-30T15:09:01.030Z,18.57
2023-04-30T15:10:40.836Z,18.41
2023-04-30T15:12:20.546Z,18.4
2023-04-30T15:14:00.324Z,18.34
2023-04-30T15:17:19.848Z,18.27
2023-04-30T15:18:59.583Z,18.2
2023-04-30T15:20:39.482Z,18.11
2023-04-30T15:22:19.210Z,18.01
2023-04-30T15:23:58.903Z,17.86
2023-04-30T15:27:18.574Z,17.77
2023-04-30T15:28:58.186Z,17.75
2023-04-30T15:30:37.939Z,17.71
2023-04-30T15:33:57.549Z,17.62
2023-04-30T15:35:37.228Z,17.56
2023-04-30T15:37:16.976Z,17.5
2023-04-30T15:38:56.778Z,17.46
2023-04-30T15:42:16.290Z,17.36
2023-04-30T15:43:56.073Z,17.25
2023-04-30T15:47:15.580Z,17.21
2023-04-30T15:48:55.363Z,17.15
2023-04-30T15:50:35.157Z,17.11
2023-04-30T15:53:54.636Z,16.99
2023-04-30T15:57:14.178Z,16.9
2023-04-30T15:58:53.910Z,16.83
2023-04-30T16:00:33.679Z,16.81
2023-04-30T16:02:13.461Z,16.76
2023-04-30T16:03:53.217Z,16.69
2023-04-30T16:05:33.114Z,16.67
2023-04-30T16:07:12.749Z,16.61
2023-04-30T16:08:52.512Z,16.54
2023-04-30T16:10:32.287Z,16.52
2023-04-30T16:12:12.106Z,16.46
2023-04-30T16:13:51.810Z,16.43
2023-04-30T16:15:31.694Z,16.32
2023-04-30T16:18:51.085Z,16.29
2023-04-30T16:20:30.862Z,16.24
2023-04-30T16:22:10.641Z,16.2
2023-04-30T16:23:50.396Z,16.19
2023-04-30T16:27:09.958Z,16.12
2023-04-30T16:28:49.797Z,16.1
2023-04-30T16:32:09.229Z,16.01
2023-04-30T16:33:48.980Z,15.97
2023-04-30T16:35:28.740Z,15.94
2023-04-30T16:37:08.515Z,15.91
2023-04-30T16:38:48.275Z,15.87
2023-04-30T16:40:28.101Z,15.83
2023-04-30T16:42:07.797Z,15.79
2023-04-30T16:43:47.540Z,15.76
2023-04-30T16:47:07.065Z,15.66
2023-04-30T16:48:46.886Z,15.65
2023-04-30T16:50:26.642Z,15.59
2023-04-30T16:52:06.392Z,15.56
2023-04-30T16:53:46.220Z,15.52
2023-04-30T16:55:25.939Z,15.48
2023-04-30T16:57:05.675Z,15.44
2023-04-30T16:58:45.507Z,15.38
2023-04-30T17:00:25.258Z,15.35
2023-04-30T17:02:04.951Z,15.31
2023-04-30T17:08:44.009Z,15.12
2023-04-30T17:10:23.792Z,15.08
2023-04-30T17:12:03.641Z,15.04
2023-04-30T17:13:43.331Z,14.99
2023-04-30T17:15:23.116Z,14.96
2023-04-30T17:17:02.853Z,14.93
2023-04-30T17:18:42.585Z,14.91
2023-04-30T17:22:02.131Z,14.85
2023-04-30T17:23:41.949Z,14.84
2023-04-30T17:27:01.405Z,14.77
2023-04-30T17:30:20.998Z,14.72
2023-04-30T17:32:00.811Z,14.67
2023-04-30T17:33:40.455Z,14.62
2023-04-30T17:37:00.043Z,14.58
2023-04-30T17:38:39.818Z,14.57
2023-04-30T17:40:19.532Z,14.56
2023-04-30T17:41:59.297Z,14.58
2023-04-30T17:43:39.045Z,14.62
2023-04-30T17:46:58.576Z,14.56
2023-04-30T17:48:38.341Z,14.58
2023-04-30T17:50:18.112Z,14.57
2023-04-30T17:51:57.882Z,14.52
2023-04-30T17:53:37.735Z,14.48
2023-04-30T17:56:57.199Z,14.35
2023-04-30T18:00:16.693Z,14.22
2023-04-30T18:01:56.464Z,14.12
2023-04-30T18:03:36.237Z,14.07
2023-04-30T18:05:15.996Z,14.01
2023-04-30T18:06:55.757Z,13.95
2023-04-30T18:08:35.743Z,13.87
2023-04-30T18:10:15.392Z,13.8
2023-04-30T18:11:55.039Z,13.73
2023-04-30T18:13:34.966Z,13.69
2023-04-30T18:16:54.380Z,13.55
2023-04-30T18:18:34.104Z,13.5
2023-04-30T18:20:13.993Z,13.44
2023-04-30T18:21:53.742Z,13.37
2023-04-30T18:23:33.497Z,13.33
2023-04-30T18:26:52.930Z,13.23
2023-04-30T18:30:12.573Z,13.14
2023-04-30T18:31:52.396Z,13.1
2023-04-30T18:33:32.009Z,13.05
2023-04-30T18:35:11.866Z,13
2023-04-30T18:36:51.618Z,12.94
2023-04-30T18:40:11.183Z,12.82
2023-04-30T18:41:50.823Z,12.77
2023-04-30T18:43:30.542Z,12.74
2023-04-30T18:45:10.401Z,12.67
2023-04-30T18:46:50.173Z,12.63
2023-04-30T18:48:29.876Z,12.6
2023-04-30T18:50:09.617Z,12.54
2023-04-30T18:51:49.376Z,12.51
2023-04-30T18:53:29.248Z,12.47
2023-04-30T18:56:48.683Z,12.38
2023-04-30T18:58:28.496Z,12.33
2023-04-30T19:00:08.180Z,12.3
2023-04-30T19:01:47.959Z,12.24
2023-04-30T19:03:27.727Z,12.2
2023-04-30T19:05:07.486Z,12.14
2023-04-30T19:06:47.295Z,12.1
2023-04-30T19:08:27.084Z,12.04
2023-04-30T19:10:06.887Z,11.98
2023-04-30T19:11:46.550Z,11.94
2023-04-30T19:13:26.342Z,11.89
2023-04-30T19:15:06.121Z,11.85
2023-04-30T19:16:45.877Z,11.78
2023-04-30T19:18:25.597Z,11.73
2023-04-30T19:20:05.363Z,11.68
2023-04-30T19:21:45.189Z,11.64
2023-04-30T19:23:24.916Z,11.57
2023-04-30T19:25:04.646Z,11.52
2023-04-30T19:26:44.411Z,11.46
2023-04-30T19:28:24.178Z,11.4
2023-04-30T19:30:03.932Z,11.35
2023-04-30T19:31:43.712Z,11.29
2023-04-30T19:33:23.463Z,11.22
2023-04-30T19:35:03.326Z,11.19
2023-04-30T19:36:42.979Z,11.13
2023-04-30T19:38:22.762Z,11.09
2023-04-30T19:40:02.521Z,11.03
2023-04-30T19:41:42.292Z,11
2023-04-30T19:43:22.119Z,10.96
2023-04-30T19:45:01.871Z,10.91
2023-04-30T19:46:41.652Z,10.86
2023-04-30T19:50:01.186Z,10.79
2023-04-30T19:51:40.942Z,10.75
2023-04-30T19:53:20.650Z,10.74
2023-04-30T19:55:00.443Z,10.7
2023-04-30T19:56:40.241Z,10.64
2023-04-30T19:58:19.922Z,10.62
2023-04-30T19:59:59.756Z,10.59
2023-04-30T20:01:39.479Z,10.55
2023-04-30T20:03:19.238Z,10.49
2023-04-30T20:06:38.740Z,10.41
2023-04-30T20:08:18.509Z,10.37
2023-04-30T20:09:58.446Z,10.34
2023-04-30T20:11:38.102Z,10.28
2023-04-30T20:13:18.030Z,10.27
2023-04-30T20:14:57.734Z,10.2
2023-04-30T20:16:37.366Z,10.17
2023-04-30T20:18:17.181Z,10.12
2023-04-30T20:19:57.051Z,10.08
2023-04-30T20:21:36.663Z,10.03
2023-04-30T20:23:16.419Z,9.97
2023-04-30T20:24:56.148Z,9.93
2023-04-30T20:26:35.918Z,9.89
2023-04-30T20:28:15.699Z,9.85
2023-04-30T20:29:55.590Z,9.8
2023-04-30T20:31:35.256Z,9.74
2023-04-30T20:33:14.978Z,9.7
2023-04-30T20:36:34.497Z,9.62
2023-04-30T20:39:54.130Z,9.54
2023-04-30T20:41:33.836Z,9.5
2023-04-30T20:43:13.553Z,9.47
2023-04-30T20:44:53.312Z,9.41
2023-04-30T20:46:33.084Z,9.39
2023-04-30T20:49:52.859Z,9.32
2023-04-30T20:51:32.388Z,9.29
2023-04-30T20:53:12.231Z,9.24
2023-04-30T20:54:51.906Z,9.2
2023-04-30T20:56:31.673Z,9.17
2023-04-30T20:58:11.425Z,9.13
2023-04-30T20:59:51.310Z,9.09
2023-04-30T21:01:30.999Z,9.06
2023-04-30T21:03:10.742Z,9.02
2023-04-30T21:04:50.502Z,8.96
2023-04-30T21:06:30.250Z,8.96
2023-04-30T21:08:10.024Z,8.89
2023-04-30T21:09:49.814Z,8.87
2023-04-30T21:11:29.559Z,8.85
2023-04-30T21:13:09.337Z,8.81
2023-04-30T21:14:49.070Z,8.78
2023-04-30T21:16:28.845Z,8.75
2023-04-30T21:18:08.644Z,8.72
2023-04-30T21:19:48.551Z,8.68
2023-04-30T21:21:28.176Z,8.64
2023-04-30T21:23:07.927Z,8.6
2023-04-30T21:24:47.654Z,8.55
2023-04-30T21:26:27.562Z,8.52
2023-04-30T21:28:07.262Z,8.47
2023-04-30T21:29:47.055Z,8.43
2023-04-30T21:31:26.773Z,8.35
2023-04-30T21:33:06.533Z,8.34
2023-04-30T21:34:46.231Z,8.31
2023-04-30T21:36:25.995Z,8.25
2023-04-30T21:38:05.800Z,8.22
2023-04-30T21:39:45.623Z,8.18
2023-04-30T21:41:25.300Z,8.17
2023-04-30T21:43:05.087Z,8.16
2023-04-30T21:44:44.833Z,8.13
2023-04-30T21:46:24.591Z,8.12
2023-04-30T21:48:04.411Z,8.07
2023-04-30T21:49:44.114Z,8.06
2023-04-30T21:51:23.966Z,8.02
2023-04-30T21:53:03.693Z,8
2023-04-30T21:54:43.403Z,7.96
2023-04-30T21:56:23.164Z,7.91
2023-04-30T21:58:02.925Z,7.88
2023-04-30T21:59:42.769Z,7.83
2023-04-30T22:01:22.486Z,7.79
2023-04-30T22:03:02.260Z,7.71
2023-04-30T22:04:42.072Z,7.7
2023-04-30T22:06:21.756Z,7.66
2023-04-30T22:08:01.587Z,7.62
2023-04-30T22:09:41.385Z,7.58
2023-04-30T22:11:21.135Z,7.55
2023-04-30T22:13:00.799Z,7.51
2023-04-30T22:14:40.590Z,7.47
2023-04-30T22:16:20.332Z,7.45
2023-04-30T22:18:00.088Z,7.4
2023-04-30T22:19:39.910Z,7.37
2023-04-30T22:21:19.722Z,7.36
2023-04-30T22:22:59.368Z,7.32
2023-04-30T22:24:39.152Z,7.29
2023-04-30T22:26:18.978Z,7.24
2023-04-30T22:27:58.681Z,7.22
2023-04-30T22:29:38.425Z,7.19
2023-04-30T22:31:18.288Z,7.14
2023-04-30T22:32:57.954Z,7.11
2023-04-30T22:34:37.721Z,7.07
2023-04-30T22:36:17.605Z,7.03
2023-04-30T22:37:57.292Z,7.01
2023-04-30T22:39:37.017Z,7.01
2023-04-30T22:41:16.821Z,6.96
2023-04-30T22:42:56.617Z,6.94
2023-04-30T22:46:16.141Z,6.89
2023-04-30T22:47:55.846Z,6.87
2023-04-30T22:49:35.593Z,6.83
2023-04-30T22:51:15.396Z,6.8
2023-04-30T22:52:55.117Z,6.76
2023-04-30T22:54:34.975Z,6.73
2023-04-30T22:56:14.648Z,6.72
2023-04-30T22:57:54.468Z,6.67
2023-04-30T22:59:34.230Z,6.63
2023-04-30T23:01:14.015Z,6.62
2023-04-30T23:02:53.744Z,6.58
2023-04-30T23:04:33.478Z,6.52
2023-04-30T23:06:13.244Z,6.51
2023-04-30T23:07:53.002Z,6.48
2023-04-30T23:09:32.768Z,6.45
2023-04-30T23:11:12.684Z,6.41
2023-04-30T23:12:52.395Z,6.38
2023-04-30T23:14:32.069Z,6.36
2023-04-30T23:16:11.881Z,6.32
2023-04-30T23:19:31.370Z,6.25
2023-04-30T23:21:11.238Z,6.24
2023-04-30T23:22:50.885Z,6.2
2023-04-30T23:24:30.683Z,6.18
2023-04-30T23:26:10.420Z,6.15
2023-04-30T23:27:50.177Z,6.12
2023-04-30T23:29:29.937Z,6.09
2023-04-30T23:31:09.798Z,6.06
2023-04-30T23:32:49.481Z,6.04
2023-04-30T23:34:29.313Z,6.01
2023-04-30T23:36:09.060Z,5.99
2023-04-30T23:37:48.746Z,5.96
2023-04-30T23:39:28.506Z,5.95
2023-04-30T23:41:08.275Z,5.93